Terminal Aerodrome Forecast
Issued by NWS

Home | Current Version | Previous Version | Text Only | Print | Product List | Glossary On
Versions: 1 2 3 4 5 6 7 8 9 10 11 12 13 14 15 16 17 18 19 20
464
FTUS44 KTSA 212325
TAFMLC
TAF
KMLC 212325Z 2200/2224 19007KT P6SM BKN100
      TEMPO 2200/2203 5SM -TSRA BKN025CB
     FM220300 17005KT 6SM -SHRA BKN050
     FM220800 24005KT P6SM OVC012
     FM221500 36012KT P6SM VCSH BKN025=

USA.gov is the U.S. government's official web portal to all federal, state and local government web resources and services.